Nearby METAR Reports

 

CYOW - Ottawa Intl, Ontario, Canada
Distance from station: N 33km
Updated: Sat, 30-May-2020 1:00am EDT
Light rain, Showers, Overcast
Light rain, Showers, Overcast
 Wind from W
Wind: W 26 km/h, Gust: 35 km/h
Temperature: 15°C
Dew Point: 14°C
Humidity: 94%
Barometer: 29.66 inHg , 1004.4 hPa
Summary: Light rain, Showers
Clouds: Overcast
Visibility: 16 km
Cloud details: Overcast 213 m
2020/05/30 05:00 CYOW 300500Z 27014G19KT 10SM -SHRA OVC007 15/14 A2966 RMK SC8 CVCTV CLD EMBD SLP045 DENSITY ALT 800FT
CYGK - Kingston Arpt, Ontario, Canada
Distance from station: SW 117km
Updated: Fri, 29-May-2020 11:00pm EDT
NOT Current
Mostly cloudy
Mostly cloudy
 Wind from SW
Wind: SW 19 km/h, Gust: 30 km/h
Temperature: 16°C
Dew Point: 15°C
Humidity: 94%
Barometer: 29.75 inHg , 1007.5 hPa
Clouds: Mostly cloudy
Visibility: 24 km
Cloud details: Mostly cloudy 213 m
2020/05/30 03:00 CYGK 300300Z 23010G16KT 15SM BKN007 16/15 A2975 RMK SF7 LAST STFD OBS NXT/301000Z SLP075 DENSITY ALT 700FT
KMSS - Massena, New York, USA
Distance from station: E 62km
Updated: Sat, 30-May-2020 1:09am EDT
Mostly cloudy
Mostly cloudy
 Wind from SW
Wind: SW 26 km/h, Gust: 41 km/h
Temperature: 19°C
Dew Point: 15°C
Humidity: 78%
Barometer: 29.69 inHg , 1005.4 hPa
Clouds: Mostly cloudy
Visibility: 16 km
Cloud details: Partly cloudy 732 m
Mostly cloudy 884 m
2020/05/30 05:09 KMSS 300509Z AUTO 22014G22KT 10SM SCT024 BKN029 19/15 A2969 RMK AO2 T01940150